• Join FlightAware (Why Join?)
  • Login
  • US Flag 
Gobble Gobble! 
02:30PM EST


 

Airport Tracker/Info


-or-


 

Live Flight TrackerFlight Track Log ✈ N401NS ✈ 24-Apr-2014 ✈ KSSI - KFTY

Flight Track Log - Related Links

Times and Time Zones

All times are in EDT time to prevent confusion due to time zone crossing. See the N401NS flight status page for this flight to view local times or setup timezone preferences in your user account.

Time Position Orientation Groundspeed Altitude Reporting Facility
EDT Latitude Longitude Course Direction KTS MPH feet Rate Location/Type
01:09PM 31.1756 -81.5061 332° Northwest 266 306 7,600  Level Jacksonville Center
01:10PM 31.2261 -81.5369 332° Northwest 186 214 10,900 1,620 Climbing Jacksonville Center
01:11PM 31.2892 -81.5725 334° Northwest 231 266 10,900 -300 Level Jacksonville Center
01:12PM 31.3439 -81.6422 313° West 280 322 10,400 -180 Descending Jacksonville Center
01:13PM 31.3947 -81.7144 310° West 297 342 10,600  Climbing Jacksonville Center
01:14PM 31.4497 -81.7819 314° West 291 335 10,500 -120 Descending Jacksonville Center
01:15PM 31.4961 -81.8447 311° West 280 322 10,400  Descending Jacksonville Center
01:16PM 31.5531 -81.9197 312° West 280 322 10,500 60 Climbing Jacksonville Center
01:17PM 31.6100 -81.9828 317° Northwest 280 322 10,600  Climbing Jacksonville Center
01:18PM 31.6606 -82.0408 316° Northwest 280 322 10,600 -60 Level Jacksonville Center
01:19PM 31.7217 -82.1208 312° West 294 338 10,500 -60 Descending Jacksonville Center
01:20PM 31.7700 -82.1839 312° West 293 337 10,500  Level Jacksonville Center
01:21PM 31.8267 -82.2642 310° West 293 337 10,500  Level Jacksonville Center
01:22PM 31.8750 -82.3275 312° West 293 337 10,500  Level Jacksonville Center
01:23PM 31.9317 -82.3981 313° West 293 337 10,500  Level Jacksonville Center
01:24PM 31.9864 -82.4689 312° West 293 337 10,500  Level Jacksonville Center
01:25PM 32.0386 -82.5422 310° West 293 337 10,500  Level Jacksonville Center
01:26PM 32.0911 -82.6156 310° West 293 337 10,600  Climbing Jacksonville Center
01:27PM 32.1475 -82.6889 312° West 293 337 10,500  Descending Jacksonville Center
01:28PM 32.2042 -82.7625 312° West 293 337 10,600  Climbing Jacksonville Center
01:29PM 32.2794 -82.8669 310° West 304 350 10,500 -60 Descending Atlanta Center
01:30PM 32.3325 -82.9400 311° West 304 350 10,500  Level Atlanta Center
01:31PM 32.3894 -83.0083 315° West 299 344 10,600 -60 Climbing Atlanta Center
01:32PM 32.4422 -83.0839 310° West 299 344 10,400  Descending Atlanta Center
01:33PM 32.4886 -83.1597 306° West 293 337 10,600  Climbing Atlanta Center
01:34PM 32.5456 -83.2331 313° West 293 337 10,500 -60 Descending Atlanta Center
01:35PM 32.5961 -83.3017 311° West 293 337 10,500  Level Atlanta Center
01:36PM 32.6528 -83.3728 313° West 288 331 10,500  Level Atlanta Center
01:37PM 32.7033 -83.4514 307° West 293 337 10,500  Level Atlanta Center
01:38PM 32.7517 -83.5250 308° West 293 337 10,600 -480 Climbing Atlanta Center
01:39PM 32.8083 -83.5964 313° West 293 337 9,600 -1,380 Descending Atlanta Center
01:40PM 32.8647 -83.6581 317° Northwest 293 337 7,900 -1,500 Descending Atlanta Center
01:41PM 32.9192 -83.7244 314° West 280 322 6,600 -1,200 Descending Atlanta Center
01:42PM 32.9694 -83.7889 313° West 275 316 5,500 -960 Descending Atlanta Center
01:43PM 33.0175 -83.8506 313° West 258 297 4,700 -480 Descending Atlanta Center
01:44PM 33.0636 -83.9050 315° West 253 291 4,600 -60 Descending Atlanta Center
01:45PM 33.1011 -83.9569 311° West 217 250 4,600  Level Atlanta Center
01:46PM 33.1389 -83.9992 317° Northwest 210 242 4,600  Level Atlanta Center
01:47PM 33.1806 -84.0511 314° West 215 247 4,600 -60 Level Atlanta Center
01:48PM 33.2222 -84.1083 311° West 215 247 4,500 -60 Descending Atlanta Center
01:50PM 33.3000 -84.2167 311° West 223 257 4,500  Level Atlanta TRACON
01:51PM 33.3333 -84.2667 309° West 217 250 4,500  Level Atlanta TRACON
01:52PM 33.3833 -84.3167 320° Northwest 221 254 4,600  Climbing Atlanta TRACON
01:53PM 33.4167 -84.3667 309° West 228 262 4,500  Descending Atlanta TRACON
01:54PM 33.4667 -84.4167 320° Northwest 224 258 4,600  Climbing Atlanta TRACON
01:55PM 33.5333 -84.4500 337° Northwest 232 267 4,500  Descending Atlanta TRACON
01:56PM 33.6000 -84.4500 360° North 231 266 4,600  Climbing Atlanta TRACON
01:57PM 33.6667 -84.4500 360° North 235 270 4,500 -60 Descending Atlanta TRACON
01:58PM 33.7167 -84.4500 360° North 232 267 4,500 -780 Level Atlanta TRACON
01:59PM 33.7833 -84.4500 360° North 195 224 3,000 -1,260 Descending Atlanta TRACON
02:00PM 33.8000 -84.5000 292° West 162 186 2,200 -540 Descending Atlanta TRACON
02:01PM 33.8000 -84.5500 270° West 134 154 2,000 -300 Descending Atlanta TRACON
02:02PM 33.7833 -84.5500 180° South 126 145 1,600 -420 Descending Atlanta TRACON
02:04PM 33.7791 -84.5214 121° Southeast  Level Estimated
02:11PM 33.7791 -84.5214 121° Southeast  Level Estimated
02:12PM 33.7791 -84.5214 121° Southeast  Level Estimated
02:13PM 33.7791 -84.5214 121° Southeast  Level Estimated
02:14PM 33.7791 -84.5214 121° Southeast  Level Estimated
02:15PM 33.7791 -84.5214 121° Southeast  Level Estimated
02:16PM 33.7791 -84.5214 121° Southeast  Level Estimated
02:17PM 33.7791 -84.5214 121° Southeast  Level Estimated
02:18PM 33.7791 -84.5214 121° Southeast  Level Estimated